Time;durP1;ratioP1;P1;durP2;ratioP2;P2;SDS_P1;SDS_P2;PMS_P1;PMS_P2;Temp;Humidity;BMP_temperature;BMP_pressure;BME280_temperature;BME280_humidity;BME280_pressure;Samples;Min_cycle;Max_cycle;Signal;HPM_P1;HPM_P2
2023/09/20 00:01:40;;;;;;;7.30;4.63;;;16.40;99.90;;;;;;5028930;28;20038;-87
2023/09/20 00:04:07;;;;;;;12.10;4.82;;;16.40;99.90;;;;;;5028228;28;20042;-87
2023/09/20 00:06:33;;;;;;;9.00;4.68;;;16.40;99.90;;;;;;5027812;28;20465;-79
2023/09/20 00:09:01;;;;;;;8.95;4.80;;;16.40;99.90;;;;;;5027033;28;20041;-79
2023/09/20 00:11:27;;;;;;;11.85;5.22;;;16.40;99.90;;;;;;4999828;28;20497;-80
2023/09/20 00:13:53;;;;;;;8.90;5.00;;;16.40;99.90;;;;;;5011184;28;20115;-79
2023/09/20 00:16:19;;;;;;;9.90;4.90;;;16.50;99.90;;;;;;5011259;28;20404;-79
2023/09/20 00:18:45;;;;;;;11.05;4.97;;;16.50;99.90;;;;;;5011121;28;20040;-79
2023/09/20 00:21:11;;;;;;;10.57;5.25;;;16.50;99.90;;;;;;5026102;28;20053;-78
2023/09/20 00:23:37;;;;;;;11.73;5.00;;;16.60;99.90;;;;;;5011026;28;20501;-79
2023/09/20 00:26:03;;;;;;;10.13;5.20;;;16.60;99.90;;;;;;4994617;28;20053;-78
2023/09/20 00:28:30;;;;;;;14.30;5.25;;;16.70;99.90;;;;;;5006979;28;20037;-80
2023/09/20 00:30:57;;;;;;;11.48;5.43;;;16.70;99.90;;;;;;4993392;28;20493;-79
2023/09/20 00:33:23;;;;;;;7.03;4.38;;;16.80;99.90;;;;;;5008946;28;20448;-80
2023/09/20 00:35:48;;;;;;;8.32;5.03;;;16.80;99.90;;;;;;5012402;28;20046;-79
2023/09/20 00:38:18;;;;;;;14.52;5.22;;;16.80;99.90;;;;;;5024654;28;20503;-79
2023/09/20 00:40:43;;;;;;;10.45;5.25;;;16.90;99.90;;;;;;4993122;28;20037;-79
2023/09/20 00:43:11;;;;;;;12.50;5.05;;;16.90;99.90;;;;;;5027065;28;20108;-79
2023/09/20 00:45:40;;;;;;;10.73;4.95;;;16.90;99.90;;;;;;5030624;28;20185;-79
2023/09/20 00:48:07;;;;;;;9.55;4.80;;;16.90;99.90;;;;;;5009186;28;20117;-79
2023/09/20 00:50:35;;;;;;;6.88;4.68;;;16.90;99.90;;;;;;5007541;28;20045;-79
2023/09/20 00:53:06;;;;;;;7.50;4.88;;;16.90;99.90;;;;;;5026659;28;20045;-79
2023/09/20 00:55:35;;;;;;;10.00;4.50;;;17.00;99.90;;;;;;5020970;28;20041;-79
2023/09/20 00:58:06;;;;;;;10.45;5.00;;;16.90;99.90;;;;;;5029186;28;20284;-79
2023/09/20 01:00:33;;;;;;;7.63;4.95;;;17.00;99.90;;;;;;5024512;28;20045;-79
2023/09/20 01:03:01;;;;;;;10.18;4.75;;;17.00;99.90;;;;;;5024750;28;20037;-79
2023/09/20 01:05:34;;;;;;;8.45;4.10;;;17.00;99.90;;;;;;5030683;28;20041;-78
2023/09/20 01:08:03;;;;;;;11.38;4.20;;;17.00;99.90;;;;;;5004035;28;20044;-90
2023/09/20 01:10:31;;;;;;;8.38;4.35;;;17.00;99.90;;;;;;5002688;28;20553;-88
2023/09/20 01:13:04;;;;;;;8.65;4.30;;;17.00;99.90;;;;;;5031911;28;20033;-91
2023/09/20 01:15:32;;;;;;;9.77;4.45;;;17.10;99.90;;;;;;5032484;28;20104;-87
2023/09/20 01:17:58;;;;;;;10.73;4.53;;;17.10;99.90;;;;;;5032229;28;20712;-88
2023/09/20 01:20:29;;;;;;;8.65;4.18;;;17.10;99.90;;;;;;5029547;28;20041;-88
2023/09/20 01:22:57;;;;;;;7.60;4.25;;;17.10;99.90;;;;;;5031808;28;20033;-89
2023/09/20 01:25:41;;;;;;;12.65;4.68;;;17.10;99.90;;;;;;5032368;28;20046;-87
2023/09/20 01:28:08;;;;;;;8.90;4.43;;;17.20;99.90;;;;;;5014803;28;20045;-88
2023/09/20 01:30:38;;;;;;;8.35;3.90;;;17.20;99.90;;;;;;5015144;28;20076;-79
2023/09/20 01:33:07;;;;;;;9.10;3.92;;;17.20;99.90;;;;;;5020047;28;20041;-79
2023/09/20 01:35:34;;;;;;;6.15;3.92;;;17.20;99.90;;;;;;4998143;28;20425;-79
2023/09/20 01:38:04;;;;;;;7.40;3.70;;;17.20;99.90;;;;;;5030407;28;20163;-79
2023/09/20 01:40:33;;;;;;;7.68;4.13;;;17.20;99.90;;;;;;5014488;28;20367;-80
2023/09/20 01:43:00;;;;;;;10.73;4.25;;;17.20;99.90;;;;;;5013070;28;20045;-80
2023/09/20 01:45:26;;;;;;;10.32;4.22;;;17.20;99.90;;;;;;5012271;28;20041;-79
2023/09/20 01:48:00;;;;;;;7.78;4.30;;;17.20;99.90;;;;;;5012560;28;20044;-78
2023/09/20 01:50:27;;;;;;;8.00;4.05;;;17.20;99.90;;;;;;5029787;28;20110;-79
2023/09/20 01:52:55;;;;;;;9.30;3.70;;;17.20;99.90;;;;;;5009920;28;20049;-79
2023/09/20 01:55:22;;;;;;;5.63;4.10;;;17.20;99.90;;;;;;5026116;28;20038;-79
2023/09/20 01:57:49;;;;;;;9.50;3.80;;;17.20;99.90;;;;;;5007886;28;20155;-79
2023/09/20 02:00:16;;;;;;;8.48;3.97;;;17.20;99.90;;;;;;5027655;28;20048;-79
2023/09/20 02:02:45;;;;;;;7.35;4.03;;;17.20;99.90;;;;;;5011881;28;20164;-78
2023/09/20 02:05:14;;;;;;;9.10;3.60;;;17.20;99.90;;;;;;5026247;28;20041;-78
2023/09/20 02:07:41;;;;;;;7.45;3.95;;;17.20;99.90;;;;;;5029138;28;20037;-79
2023/09/20 02:10:08;;;;;;;9.30;3.72;;;17.20;99.90;;;;;;5008113;28;20103;-79
2023/09/20 02:12:36;;;;;;;11.38;4.18;;;17.20;99.90;;;;;;5027575;28;20050;-79
2023/09/20 02:15:07;;;;;;;9.07;3.85;;;17.20;99.90;;;;;;5003903;28;20052;-79
2023/09/20 02:17:35;;;;;;;6.95;3.80;;;17.20;99.90;;;;;;5018359;28;20453;-79
2023/09/20 02:20:08;;;;;;;9.73;3.67;;;17.20;99.90;;;;;;5024130;28;20512;-78
2023/09/20 02:22:35;;;;;;;10.52;3.95;;;17.20;99.90;;;;;;5027771;28;20044;-79
2023/09/20 02:25:03;;;;;;;8.73;3.92;;;17.20;99.90;;;;;;5024720;28;20443;-79
2023/09/20 02:27:30;;;;;;;12.00;4.10;;;17.20;99.90;;;;;;5001197;28;20381;-79
2023/09/20 02:29:56;;;;;;;6.60;3.75;;;17.20;99.90;;;;;;5007280;28;20121;-79
2023/09/20 02:32:23;;;;;;;7.82;3.80;;;17.20;99.90;;;;;;5027122;28;20140;-79
2023/09/20 02:34:51;;;;;;;8.85;4.30;;;17.20;99.90;;;;;;5028559;28;20171;-79
2023/09/20 02:37:17;;;;;;;7.90;4.10;;;17.20;99.90;;;;;;5007313;28;20053;-80
2023/09/20 02:39:42;;;;;;;8.48;3.63;;;17.20;99.90;;;;;;4994316;28;20045;-78
2023/09/20 02:42:08;;;;;;;7.32;3.70;;;17.20;99.90;;;;;;5012096;28;20378;-79
2023/09/20 02:44:35;;;;;;;7.38;3.67;;;17.20;99.90;;;;;;5004286;28;20128;-79
2023/09/20 02:47:00;;;;;;;5.72;3.58;;;17.20;99.90;;;;;;4989930;28;20052;-90
2023/09/20 02:49:26;;;;;;;8.60;3.95;;;17.20;99.90;;;;;;5023651;28;20395;-90
2023/09/20 02:51:52;;;;;;;8.30;3.90;;;17.30;99.90;;;;;;5026040;28;20493;-89
2023/09/20 02:54:19;;;;;;;10.15;3.72;;;17.30;99.90;;;;;;5002676;28;20053;-87
2023/09/20 02:56:45;;;;;;;6.72;3.92;;;17.30;99.90;;;;;;5003145;28;20041;-89
2023/09/20 02:59:10;;;;;;;6.22;3.40;;;17.30;99.90;;;;;;5023978;28;20045;-89
2023/09/20 03:01:36;;;;;;;7.25;4.00;;;17.30;99.90;;;;;;5009776;28;20076;-90
2023/09/20 03:04:03;;;;;;;10.80;3.78;;;17.20;99.90;;;;;;5013570;28;20037;-87
2023/09/20 03:06:29;;;;;;;6.97;4.28;;;17.20;99.90;;;;;;5029388;28;20493;-89
2023/09/20 03:08:55;;;;;;;7.25;3.15;;;17.20;99.90;;;;;;5013508;28;20107;-87
2023/09/20 03:11:21;;;;;;;9.95;3.80;;;17.20;99.90;;;;;;5013427;28;20116;-89
2023/09/20 03:13:48;;;;;;;8.07;3.42;;;17.30;99.90;;;;;;4991913;28;20072;-87
2023/09/20 03:16:20;;;;;;;8.07;3.40;;;17.30;99.90;;;;;;5025201;28;20492;-90
2023/09/20 03:18:45;;;;;;;;;;;17.20;99.90;;;;;;5028970;28;20120;-79
2023/09/20 03:21:11;;;;;;;12.52;3.95;;;17.20;99.90;;;;;;5027865;28;20016;-79
2023/09/20 03:23:37;;;;;;;8.07;4.20;;;17.20;99.90;;;;;;5010529;28;20059;-79
2023/09/20 03:26:04;;;;;;;5.60;3.90;;;17.20;99.90;;;;;;5022646;28;20099;-79
2023/09/20 03:28:33;;;;;;;12.15;4.13;;;17.20;99.90;;;;;;5024676;28;20072;-80
2023/09/20 03:31:02;;;;;;;7.97;3.72;;;17.20;99.90;;;;;;5012051;28;20059;-79
2023/09/20 03:33:30;;;;;;;8.75;3.83;;;17.20;99.90;;;;;;4996259;28;20564;-78
2023/09/20 03:35:58;;;;;;;10.35;4.03;;;17.20;99.90;;;;;;5026703;28;20060;-79
2023/09/20 03:38:27;;;;;;;7.68;4.00;;;17.20;99.90;;;;;;5010331;28;20440;-79
2023/09/20 03:40:53;;;;;;;7.57;3.83;;;17.20;99.90;;;;;;5008340;28;20121;-79
2023/09/20 03:43:18;;;;;;;7.93;4.28;;;17.20;99.90;;;;;;5009167;28;20464;-79
2023/09/20 03:45:45;;;;;;;7.20;4.05;;;17.20;99.90;;;;;;5003471;28;20047;-79
2023/09/20 03:48:11;;;;;;;9.85;4.60;;;17.20;99.90;;;;;;5027688;28;20045;-79
2023/09/20 03:50:38;;;;;;;10.25;4.43;;;17.20;99.90;;;;;;5021408;28;20421;-80
2023/09/20 03:53:04;;;;;;;8.95;4.25;;;17.20;99.90;;;;;;5009872;28;20062;-78
2023/09/20 03:55:30;;;;;;;9.45;4.10;;;17.10;99.90;;;;;;4992654;28;20124;-79
2023/09/20 03:57:56;;;;;;;5.82;3.80;;;17.10;99.90;;;;;;5020948;28;20045;-78
2023/09/20 04:00:31;;;;;;;8.27;4.18;;;17.10;99.90;;;;;;5009546;28;20531;-79
2023/09/20 04:02:57;;;;;;;6.90;4.43;;;17.00;99.90;;;;;;5004540;28;20485;-80
2023/09/20 04:05:24;;;;;;;6.78;3.75;;;17.00;99.90;;;;;;5007955;28;20103;-78
2023/09/20 04:07:50;;;;;;;8.20;4.32;;;16.90;99.90;;;;;;5006808;28;20125;-79
2023/09/20 04:10:17;;;;;;;7.20;4.00;;;17.00;99.90;;;;;;5027086;28;20128;-79
2023/09/20 04:12:43;;;;;;;7.63;3.85;;;16.90;99.90;;;;;;5009792;28;20099;-78
2023/09/20 04:15:09;;;;;;;6.68;3.85;;;16.80;99.90;;;;;;5020878;28;20392;-79
2023/09/20 04:17:35;;;;;;;9.60;3.88;;;16.80;99.90;;;;;;5030458;28;20033;-80
2023/09/20 04:20:12;;;;;;;9.48;3.83;;;16.80;99.90;;;;;;5031613;28;20045;-78
2023/09/20 04:22:40;;;;;;;10.52;4.85;;;16.80;99.90;;;;;;5016220;28;20564;-78
2023/09/20 04:25:06;;;;;;;8.80;3.78;;;16.70;99.90;;;;;;4997880;28;20519;-79
2023/09/20 04:27:32;;;;;;;11.98;4.03;;;16.70;99.90;;;;;;4995223;28;20545;-79
2023/09/20 04:29:59;;;;;;;12.23;4.45;;;16.60;99.90;;;;;;5029428;28;20052;-79
2023/09/20 04:32:24;;;;;;;7.65;3.70;;;16.60;99.90;;;;;;5030916;28;20107;-79
2023/09/20 04:34:53;;;;;;;8.15;3.92;;;16.60;99.90;;;;;;4996168;28;20037;-79
2023/09/20 04:37:20;;;;;;;9.93;4.47;;;16.50;99.90;;;;;;5011036;28;20054;-90
2023/09/20 04:39:47;;;;;;;9.18;4.13;;;16.50;99.90;;;;;;5031392;28;20080;-89
2023/09/20 04:42:13;;;;;;;8.93;4.10;;;16.50;99.90;;;;;;5016052;28;20125;-89
2023/09/20 04:44:41;;;;;;;9.88;4.00;;;16.40;99.90;;;;;;5011805;28;20037;-88
2023/09/20 04:47:07;;;;;;;8.25;4.22;;;16.30;99.90;;;;;;5030616;28;20393;-91
2023/09/20 04:49:33;;;;;;;7.88;3.72;;;16.30;99.90;;;;;;5023918;28;20071;-86
2023/09/20 04:52:04;;;;;;;15.75;4.80;;;16.30;99.90;;;;;;5013374;28;20058;-88
2023/09/20 04:54:30;;;;;;;7.65;3.55;;;16.30;99.90;;;;;;5008565;28;20124;-85
2023/09/20 04:56:56;;;;;;;9.48;4.10;;;16.20;99.90;;;;;;5027853;28;20124;-87
2023/09/20 04:59:22;;;;;;;9.25;4.03;;;16.20;99.90;;;;;;5014104;28;20037;-88
2023/09/20 05:01:52;;;;;;;9.95;4.10;;;16.10;99.90;;;;;;5031581;28;20379;-87
2023/09/20 05:04:19;;;;;;;8.15;3.80;;;16.10;99.90;;;;;;5028737;28;20049;-89
2023/09/20 05:06:45;;;;;;;7.60;3.78;;;16.10;99.90;;;;;;5035380;28;20171;-89
2023/09/20 05:09:12;;;;;;;8.45;4.03;;;16.00;99.90;;;;;;5030904;28;20056;-89
2023/09/20 05:11:38;;;;;;;7.68;3.90;;;16.00;99.90;;;;;;5013488;28;20044;-88
2023/09/20 05:14:06;;;;;;;11.77;4.03;;;16.00;99.90;;;;;;5031319;28;20045;-87
2023/09/20 05:16:32;;;;;;;9.50;4.07;;;15.90;99.90;;;;;;5019310;28;20041;-79
2023/09/20 05:18:59;;;;;;;7.57;3.97;;;15.90;99.90;;;;;;4997923;28;20488;-79
2023/09/20 05:21:25;;;;;;;8.30;3.90;;;15.80;99.90;;;;;;5030005;28;20038;-79
2023/09/20 05:23:50;;;;;;;6.63;3.50;;;15.90;99.90;;;;;;5030192;28;20448;-79
2023/09/20 05:26:18;;;;;;;9.13;4.13;;;15.80;99.90;;;;;;4997759;28;20042;-79
2023/09/20 05:28:46;;;;;;;7.20;4.20;;;15.80;99.90;;;;;;5030192;28;20049;-79
2023/09/20 05:31:13;;;;;;;6.03;3.88;;;15.80;99.90;;;;;;5014634;28;20057;-79
2023/09/20 05:33:39;;;;;;;6.70;3.80;;;15.80;99.90;;;;;;5004976;28;20517;-79
2023/09/20 05:36:05;;;;;;;10.13;3.70;;;15.80;99.90;;;;;;5025752;28;21305;-79
2023/09/20 05:38:30;;;;;;;7.43;3.83;;;15.80;99.90;;;;;;5013425;28;20126;-80
2023/09/20 05:40:56;;;;;;;8.35;4.00;;;15.80;99.90;;;;;;5010553;28;20081;-79
2023/09/20 05:43:22;;;;;;;10.70;3.92;;;15.80;99.90;;;;;;5004524;28;20045;-79
2023/09/20 05:45:48;;;;;;;10.57;4.13;;;15.80;99.90;;;;;;4975686;28;20085;-78
2023/09/20 05:48:13;;;;;;;7.05;3.53;;;15.80;99.90;;;;;;5024363;28;20179;-79
2023/09/20 05:50:40;;;;;;;8.60;3.67;;;15.80;99.90;;;;;;5020515;28;20034;-78
2023/09/20 05:53:10;;;;;;;9.60;4.20;;;15.80;99.90;;;;;;5021635;28;20412;-79
2023/09/20 05:55:38;;;;;;;7.68;4.15;;;15.80;99.90;;;;;;5027938;28;20060;-78
2023/09/20 05:58:04;;;;;;;9.82;3.95;;;15.80;99.90;;;;;;5023611;28;20061;-78
2023/09/20 06:00:30;;;;;;;6.53;3.83;;;15.80;99.90;;;;;;4979665;28;20397;-79
2023/09/20 06:02:59;;;;;;;8.63;3.63;;;15.80;99.90;;;;;;5029226;28;20128;-79
2023/09/20 06:05:30;;;;;;;9.05;3.45;;;15.90;99.90;;;;;;5029588;28;20114;-79
2023/09/20 06:07:57;;;;;;;5.35;3.53;;;15.90;99.90;;;;;;5018850;28;20064;-78
2023/09/20 06:10:23;;;;;;;8.80;3.70;;;16.00;99.90;;;;;;5029898;28;20072;-78
2023/09/20 06:12:52;;;;;;;5.45;3.33;;;16.00;99.90;;;;;;5029934;28;20033;-77
2023/09/20 06:15:18;;;;;;;6.43;4.20;;;16.10;99.90;;;;;;5027464;28;20092;-78
2023/09/20 06:17:47;;;;;;;10.55;3.40;;;16.10;99.90;;;;;;5025314;28;20049;-79
2023/09/20 06:20:19;;;;;;;7.00;3.65;;;16.10;99.90;;;;;;5027610;28;20168;-80
2023/09/20 06:22:48;;;;;;;5.68;3.40;;;16.20;99.90;;;;;;5023613;28;20048;-79
2023/09/20 06:25:21;;;;;;;7.50;3.72;;;16.20;99.90;;;;;;5012179;28;20037;-80
2023/09/20 06:27:53;;;;;;;7.28;3.72;;;16.30;99.90;;;;;;5025800;28;20037;-79
2023/09/20 06:30:20;;;;;;;6.38;3.50;;;16.30;99.90;;;;;;5027538;28;20084;-79
2023/09/20 06:32:46;;;;;;;7.82;3.72;;;16.40;99.90;;;;;;5028159;28;20442;-78
2023/09/20 06:35:14;;;;;;;6.95;3.83;;;16.40;99.90;;;;;;5009744;28;20047;-79
2023/09/20 06:37:45;;;;;;;6.35;3.65;;;16.40;99.90;;;;;;5028491;28;20486;-79
2023/09/20 06:40:57;;;;;;;8.68;3.35;;;16.40;99.90;;;;;;5027043;28;20087;-78
2023/09/20 06:42:57;;;;;;;7.80;3.80;;;16.40;99.90;;;;;;5002626;28;20124;-80
2023/09/20 06:45:24;;;;;;;6.88;3.47;;;16.50;99.90;;;;;;4995389;28;20128;-78
2023/09/20 06:47:49;;;;;;;9.48;3.35;;;16.50;99.90;;;;;;5011809;28;20493;-79
2023/09/20 06:50:15;;;;;;;5.40;3.30;;;16.60;99.90;;;;;;5011172;28;20122;-79
2023/09/20 06:52:44;;;;;;;5.53;3.38;;;16.60;99.90;;;;;;5008942;28;20068;-79
2023/09/20 06:55:15;;;;;;;7.63;3.63;;;16.60;99.90;;;;;;5012009;28;20124;-79
2023/09/20 06:57:42;;;;;;;4.50;3.30;;;16.70;99.90;;;;;;5025016;28;20088;-79
2023/09/20 07:00:18;;;;;;;8.05;3.78;;;16.80;99.90;;;;;;5025633;28;20052;-79
2023/09/20 07:02:46;;;;;;;7.78;3.63;;;16.80;99.90;;;;;;5027229;28;20111;-79
2023/09/20 07:05:13;;;;;;;9.20;3.90;;;16.80;99.90;;;;;;5028021;28;20077;-79
2023/09/20 07:07:39;;;;;;;6.63;4.13;;;16.90;99.90;;;;;;4992288;28;20042;-79
2023/09/20 07:10:05;;;;;;;10.80;4.47;;;16.90;99.90;;;;;;5011322;28;20121;-79
2023/09/20 07:12:34;;;;;;;7.15;3.42;;;17.00;99.90;;;;;;5011007;28;20085;-79
2023/09/20 07:15:00;;;;;;;6.90;3.90;;;17.00;99.90;;;;;;5011169;28;20037;-79
2023/09/20 07:17:25;;;;;;;9.73;3.55;;;17.00;99.90;;;;;;4978907;28;20443;-79
2023/09/20 07:19:57;;;;;;;6.03;3.70;;;17.10;99.90;;;;;;5008373;28;20130;-79
2023/09/20 07:22:23;;;;;;;6.00;3.50;;;17.10;99.90;;;;;;5027202;28;20116;-79
2023/09/20 07:24:54;;;;;;;7.85;3.78;;;17.10;99.90;;;;;;4995102;28;20424;-80
2023/09/20 07:27:20;;;;;;;6.37;3.90;;;17.10;99.90;;;;;;5027083;28;20047;-79
2023/09/20 07:29:46;;;;;;;7.18;3.85;;;17.00;99.90;;;;;;5008566;28;20090;-79
2023/09/20 07:32:15;;;;;;;12.85;3.63;;;17.00;99.90;;;;;;5009011;28;20527;-81
2023/09/20 07:34:41;;;;;;;7.47;4.05;;;17.00;99.90;;;;;;5010657;28;20068;-81
2023/09/20 07:37:07;;;;;;;8.00;4.18;;;17.10;99.90;;;;;;5026428;28;20129;-79
2023/09/20 07:39:33;;;;;;;8.07;4.00;;;17.20;99.90;;;;;;4994020;28;20049;-79
2023/09/20 07:41:59;;;;;;;7.20;3.88;;;17.20;99.90;;;;;;5026235;28;20115;-80
2023/09/20 07:44:30;;;;;;;8.70;4.00;;;17.30;99.90;;;;;;5026720;28;20030;-80
2023/09/20 07:46:59;;;;;;;10.52;4.18;;;17.30;99.90;;;;;;5012237;28;20041;-79
2023/09/20 07:49:25;;;;;;;6.25;3.55;;;17.40;99.90;;;;;;5024767;28;20045;-80
2023/09/20 07:51:53;;;;;;;7.25;3.80;;;17.60;99.90;;;;;;5026283;28;20061;-79
2023/09/20 07:54:20;;;;;;;7.78;3.90;;;17.70;99.90;;;;;;5027417;28;20049;-80
2023/09/20 07:56:52;;;;;;;9.55;4.15;;;17.80;99.90;;;;;;5027706;28;20045;-79
2023/09/20 07:59:18;;;;;;;9.63;3.95;;;17.70;99.90;;;;;;5028018;28;20046;-81
2023/09/20 08:01:45;;;;;;;8.82;3.88;;;17.70;99.90;;;;;;5010162;28;20160;-79
2023/09/20 08:04:11;;;;;;;6.80;4.40;;;17.70;99.90;;;;;;5026397;28;20037;-79
2023/09/20 08:06:39;;;;;;;11.07;4.32;;;17.70;99.90;;;;;;5026183;28;20053;-79
2023/09/20 08:09:05;;;;;;;7.05;3.90;;;17.70;99.90;;;;;;5021632;28;20049;-79
2023/09/20 08:11:32;;;;;;;8.40;3.80;;;17.70;99.90;;;;;;5027515;28;20393;-79
2023/09/20 08:14:00;;;;;;;7.97;4.00;;;17.70;99.90;;;;;;5010408;28;20052;-78
2023/09/20 08:16:33;;;;;;;6.15;4.10;;;17.80;99.90;;;;;;5025263;28;20048;-79
2023/09/20 08:21:42;;;;;;;7.10;4.25;;;17.80;99.90;;;;;;5025040;28;20108;-79
2023/09/20 09:00:24;;;;;;;8.30;3.80;;;17.70;99.90;;;;;;5014324;28;20049;-77
2023/09/20 09:02:54;;;;;;;6.22;3.53;;;17.80;99.90;;;;;;5029348;28;20037;-78
2023/09/20 09:05:23;;;;;;;9.27;4.18;;;17.80;99.90;;;;;;5013510;28;20524;-79
2023/09/20 09:07:49;;;;;;;5.72;3.67;;;17.80;99.90;;;;;;5030100;28;20741;-78
2023/09/20 09:10:15;;;;;;;7.70;3.60;;;17.90;99.90;;;;;;5025371;28;20041;-80
2023/09/20 09:12:42;;;;;;;7.53;4.10;;;17.90;99.90;;;;;;5026018;28;20120;-79
2023/09/20 09:15:16;;;;;;;6.95;3.63;;;17.90;99.90;;;;;;4997197;28;20052;-79
2023/09/20 09:17:46;;;;;;;7.22;3.80;;;17.90;99.90;;;;;;4996322;28;20426;-79
2023/09/20 09:20:15;;;;;;;8.20;3.55;;;18.00;99.90;;;;;;5027587;28;20041;-79
2023/09/20 09:22:42;;;;;;;6.55;3.70;;;18.00;99.90;;;;;;5028821;28;20076;-79
2023/09/20 09:25:16;;;;;;;7.32;4.10;;;18.00;99.90;;;;;;5013242;28;20037;-79
2023/09/20 09:27:43;;;;;;;7.43;3.78;;;18.00;99.90;;;;;;5030024;28;20045;-79
2023/09/20 09:30:13;;;;;;;7.75;3.72;;;18.00;99.90;;;;;;5011622;28;20436;-79
2023/09/20 09:32:40;;;;;;;5.53;3.90;;;18.00;99.90;;;;;;5026246;28;20095;-81
2023/09/20 09:35:07;;;;;;;6.75;3.60;;;18.00;99.90;;;;;;5028555;28;20037;-79
2023/09/20 09:37:34;;;;;;;5.95;3.30;;;18.00;99.90;;;;;;5009885;28;20053;-81
2023/09/20 09:40:02;;;;;;;6.18;3.50;;;18.10;99.90;;;;;;4994012;28;20044;-79
2023/09/20 09:42:28;;;;;;;6.80;3.33;;;18.00;99.90;;;;;;5027807;28;20052;-79
2023/09/20 09:44:58;;;;;;;7.28;3.45;;;18.10;99.90;;;;;;5029020;28;20103;-79
2023/09/20 09:47:25;;;;;;;7.18;3.63;;;18.10;99.90;;;;;;5010077;28;20048;-80
2023/09/20 09:49:54;;;;;;;8.50;3.88;;;18.10;99.90;;;;;;5009577;28;20055;-80
2023/09/20 09:52:24;;;;;;;6.47;3.30;;;18.20;99.90;;;;;;5026475;28;20058;-79
2023/09/20 09:54:52;;;;;;;5.93;3.50;;;18.20;99.90;;;;;;5029229;28;20069;-80
2023/09/20 09:57:18;;;;;;;4.80;2.90;;;18.30;99.90;;;;;;5012545;28;20041;-81
2023/09/20 09:59:46;;;;;;;5.35;3.50;;;18.40;99.90;;;;;;5028711;28;20117;-79
2023/09/20 10:02:25;;;;;;;7.68;3.30;;;18.40;99.90;;;;;;5012248;28;20034;-78
2023/09/20 10:05:13;;;;;;;6.40;3.20;;;18.50;99.90;;;;;;5011614;28;20148;-79
2023/09/20 10:07:41;;;;;;;7.80;4.20;;;18.50;99.90;;;;;;5026506;28;20041;-79
2023/09/20 10:10:13;;;;;;;6.20;3.30;;;18.50;99.90;;;;;;5028393;28;20050;-80
2023/09/20 10:12:40;;;;;;;9.27;3.58;;;18.50;99.90;;;;;;5028295;28;20177;-79
2023/09/20 10:15:09;;;;;;;6.88;3.33;;;18.60;99.90;;;;;;4999010;28;20496;-81
2023/09/20 10:17:52;;;;;;;5.30;3.00;;;18.60;99.90;;;;;;5011549;28;20516;-79
2023/09/20 10:20:18;;;;;;;6.15;3.30;;;18.60;99.90;;;;;;5025157;28;20045;-80
2023/09/20 10:22:48;;;;;;;4.63;2.83;;;18.60;99.90;;;;;;5028522;28;20104;-79
2023/09/20 10:25:31;;;;;;;4.38;2.97;;;18.70;99.90;;;;;;5028623;28;20515;-79
2023/09/20 10:27:57;;;;;;;5.53;3.13;;;18.70;99.90;;;;;;5027753;28;20681;-78
2023/09/20 10:30:22;;;;;;;5.00;3.08;;;18.60;99.90;;;;;;5026348;28;20045;-79
2023/09/20 10:32:54;;;;;;;4.43;3.10;;;18.70;99.90;;;;;;5011838;28;20045;-78
2023/09/20 10:35:36;;;;;;;5.05;3.05;;;18.70;99.90;;;;;;5012065;28;20042;-79
2023/09/20 10:38:08;;;;;;;3.75;3.03;;;18.70;99.90;;;;;;5024642;28;20052;-82
2023/09/20 10:40:50;;;;;;;5.97;2.72;;;18.60;99.90;;;;;;5027104;28;20095;-79
2023/09/20 10:43:25;;;;;;;5.85;2.90;;;18.70;99.90;;;;;;5025659;28;20049;-79
2023/09/20 10:45:51;;;;;;;4.18;2.78;;;18.70;99.90;;;;;;5028265;28;20037;-80
2023/09/20 10:48:18;;;;;;;3.45;2.42;;;18.70;99.90;;;;;;5009303;28;20408;-79
2023/09/20 10:50:54;;;;;;;5.25;2.78;;;18.70;99.90;;;;;;5011398;28;20463;-78
2023/09/20 10:53:22;;;;;;;3.33;2.70;;;18.70;99.90;;;;;;5010618;28;20057;-80
2023/09/20 10:55:49;;;;;;;3.72;2.88;;;18.80;99.90;;;;;;5027335;28;20405;-80
2023/09/20 10:58:19;;;;;;;4.20;2.67;;;18.80;99.90;;;;;;5011984;28;20488;-80
2023/09/20 11:00:45;;;;;;;3.65;2.72;;;18.80;99.90;;;;;;5027359;28;20042;-80
2023/09/20 11:03:12;;;;;;;4.60;2.65;;;18.80;99.90;;;;;;5026873;28;20052;-79
2023/09/20 11:05:39;;;;;;;3.75;2.60;;;18.80;99.90;;;;;;5027359;28;20400;-79
2023/09/20 11:08:10;;;;;;;6.05;3.10;;;18.80;99.90;;;;;;5011385;28;20056;-79
2023/09/20 11:10:40;;;;;;;4.53;2.85;;;18.80;99.90;;;;;;5027163;28;20045;-80
2023/09/20 11:13:09;;;;;;;5.72;3.03;;;18.80;99.90;;;;;;5027937;28;20088;-79
2023/09/20 11:15:43;;;;;;;4.68;2.90;;;18.80;99.90;;;;;;4995155;28;20045;-78
2023/09/20 11:18:10;;;;;;;2.90;2.60;;;18.70;99.90;;;;;;5026475;28;20037;-80
2023/09/20 11:20:36;;;;;;;4.25;2.95;;;18.70;99.90;;;;;;4993620;28;20037;-80
2023/09/20 11:23:02;;;;;;;6.53;2.88;;;18.80;99.90;;;;;;5027827;28;20045;-79
2023/09/20 11:25:29;;;;;;;4.38;2.67;;;18.80;99.90;;;;;;5027778;28;20433;-79
2023/09/20 11:27:56;;;;;;;3.50;2.72;;;18.90;99.90;;;;;;5024362;28;20480;-79
2023/09/20 11:30:28;;;;;;;3.80;2.78;;;19.00;99.90;;;;;;5026692;28;20088;-80
2023/09/20 11:33:04;;;;;;;4.53;3.15;;;19.10;99.90;;;;;;5011714;28;20488;-79
2023/09/20 11:35:42;;;;;;;4.35;3.38;;;19.20;99.90;;;;;;5011277;28;20439;-79
2023/09/20 11:38:15;;;;;;;4.30;2.50;;;19.20;99.90;;;;;;5023654;28;20048;-79
2023/09/20 11:40:41;;;;;;;3.70;2.40;;;19.20;99.90;;;;;;5026925;28;20044;-79
2023/09/20 11:43:09;;;;;;;4.40;2.83;;;19.20;99.90;;;;;;5024364;28;20073;-79
2023/09/20 11:45:41;;;;;;;3.70;2.60;;;19.20;99.90;;;;;;5010377;28;20049;-79
2023/09/20 11:48:08;;;;;;;3.72;2.80;;;19.20;99.90;;;;;;5009576;28;20038;-79
2023/09/20 11:50:41;;;;;;;3.67;2.70;;;19.20;99.90;;;;;;5010377;28;20038;-79
2023/09/20 11:53:07;;;;;;;4.68;2.58;;;19.30;99.90;;;;;;5010783;28;20068;-80
2023/09/20 11:55:33;;;;;;;4.65;2.60;;;19.30;99.90;;;;;;5025988;28;20428;-80
2023/09/20 11:58:00;;;;;;;6.47;3.08;;;19.40;99.90;;;;;;5022391;28;20462;-79
2023/09/20 12:00:27;;;;;;;4.40;2.92;;;19.50;99.90;;;;;;5027161;28;20120;-79
2023/09/20 12:02:53;;;;;;;4.80;2.80;;;19.60;99.90;;;;;;5009837;28;20033;-80
2023/09/20 12:05:21;;;;;;;4.97;3.00;;;19.70;99.90;;;;;;5011292;28;20119;-79
2023/09/20 12:07:56;;;;;;;4.47;2.80;;;19.70;99.90;;;;;;5026929;28;20037;-79
2023/09/20 12:10:22;;;;;;;5.47;2.88;;;19.80;99.90;;;;;;5010878;28;20048;-79
2023/09/20 12:12:49;;;;;;;6.05;3.25;;;19.90;99.90;;;;;;5027267;28;20051;-78
2023/09/20 12:15:15;;;;;;;6.03;3.25;;;20.00;99.90;;;;;;5009941;28;20041;-80
2023/09/20 12:17:42;;;;;;;4.45;3.13;;;20.20;99.90;;;;;;5024419;28;20045;-80
2023/09/20 12:20:08;;;;;;;4.13;3.00;;;20.30;99.90;;;;;;5014700;28;20049;-81
2023/09/20 12:22:34;;;;;;;6.47;3.67;;;20.40;99.90;;;;;;5005513;28;20576;-79
2023/09/20 12:25:00;;;;;;;5.32;3.17;;;20.50;99.90;;;;;;5010213;28;20121;-79
2023/09/20 12:27:25;;;;;;;5.53;3.35;;;20.50;99.90;;;;;;4987436;28;20096;-78
2023/09/20 12:29:51;;;;;;;4.93;3.72;;;20.40;99.90;;;;;;4994628;28;20037;-79
2023/09/20 12:32:17;;;;;;;5.03;3.30;;;20.30;99.90;;;;;;5029886;28;20156;-78
2023/09/20 12:34:42;;;;;;;6.22;3.22;;;20.30;99.90;;;;;;5025364;28;20051;-77
2023/09/20 12:37:08;;;;;;;6.43;3.70;;;20.40;99.90;;;;;;5030027;28;20115;-78
2023/09/20 12:39:36;;;;;;;6.13;3.60;;;20.40;99.90;;;;;;5027141;28;20048;-80
2023/09/20 12:42:02;;;;;;;6.30;4.05;;;20.30;99.90;;;;;;5030751;28;20083;-78
2023/09/20 12:44:28;;;;;;;4.90;3.47;;;20.30;99.90;;;;;;5014796;28;20456;-78
2023/09/20 12:46:54;;;;;;;6.78;3.35;;;20.30;99.90;;;;;;5030412;28;20046;-79
2023/09/20 12:49:20;;;;;;;6.13;3.30;;;20.40;99.90;;;;;;5030790;28;20045;-79
2023/09/20 12:51:46;;;;;;;6.63;3.40;;;20.50;99.90;;;;;;5030817;28;20119;-79
2023/09/20 12:54:11;;;;;;;4.35;3.40;;;20.60;99.90;;;;;;5026750;28;20049;-79
2023/09/20 12:56:39;;;;;;;4.93;3.63;;;20.80;99.90;;;;;;4997928;28;20068;-80
2023/09/20 12:59:05;;;;;;;5.95;3.40;;;20.90;99.90;;;;;;5014400;28;20125;-80
2023/09/20 13:01:31;;;;;;;4.40;3.20;;;21.10;99.90;;;;;;4997421;28;20124;-78
2023/09/20 13:03:57;;;;;;;8.35;3.30;;;21.20;99.90;;;;;;5014114;28;20394;-79
2023/09/20 13:06:24;;;;;;;7.20;3.33;;;21.40;99.90;;;;;;4996251;28;20052;-78
2023/09/20 13:08:50;;;;;;;5.32;3.10;;;21.40;99.90;;;;;;4981195;28;20506;-80
2023/09/20 13:11:16;;;;;;;4.47;3.17;;;21.60;99.90;;;;;;5011471;28;20045;-80
2023/09/20 13:13:42;;;;;;;5.20;3.15;;;21.60;99.90;;;;;;5002792;28;20073;-79
2023/09/20 13:16:13;;;;;;;4.47;2.75;;;21.60;99.90;;;;;;5011291;28;20080;-78
2023/09/20 13:18:39;;;;;;;6.70;3.15;;;21.50;99.90;;;;;;5025472;28;20099;-79
2023/09/20 13:21:05;;;;;;;4.75;3.05;;;21.40;99.90;;;;;;5028893;28;20037;-80
2023/09/20 13:23:31;;;;;;;4.97;2.70;;;21.30;99.90;;;;;;5025524;28;20125;-80
2023/09/20 13:25:58;;;;;;;4.88;3.30;;;21.30;99.90;;;;;;5028943;28;20044;-78
2023/09/20 13:28:23;;;;;;;4.30;3.15;;;21.40;99.90;;;;;;5030137;28;20103;-80